sensor_id;sensor_type;location;lat;lon;timestamp;pressure;altitude;pressure_sealevel;temperature;humidity
62800;BME280;48842;51.046;13.796;2022-12-29T00:01:30;99785.22;;;10.89;53.53
62800;BME280;48842;51.046;13.796;2022-12-29T00:03:55;99783.50;;;10.88;53.58
62800;BME280;48842;51.046;13.796;2022-12-29T00:06:20;99786.97;;;10.90;53.63
62800;BME280;48842;51.046;13.796;2022-12-29T00:08:46;99787.88;;;10.91;53.47
62800;BME280;48842;51.046;13.796;2022-12-29T00:11:13;99780.00;;;10.92;53.51
62800;BME280;48842;51.046;13.796;2022-12-29T00:13:39;99774.75;;;10.92;53.39
62800;BME280;48842;51.046;13.796;2022-12-29T00:16:23;99771.25;;;10.93;53.68
62800;BME280;48842;51.046;13.796;2022-12-29T00:18:49;99771.25;;;10.93;53.66
62800;BME280;48842;51.046;13.796;2022-12-29T00:21:16;99775.63;;;10.93;53.31
62800;BME280;48842;51.046;13.796;2022-12-29T00:24:01;99769.53;;;10.92;53.86
62800;BME280;48842;51.046;13.796;2022-12-29T00:26:48;99777.38;;;10.94;53.80
62800;BME280;48842;51.046;13.796;2022-12-29T00:29:33;99786.09;;;10.94;53.38
62800;BME280;48842;51.046;13.796;2022-12-29T00:32:17;99766.84;;;11.00;53.23
62800;BME280;48842;51.046;13.796;2022-12-29T00:35:01;99742.31;;;11.07;53.09
62800;BME280;48842;51.046;13.796;2022-12-29T00:37:38;99757.13;;;11.13;53.16
62800;BME280;48842;51.046;13.796;2022-12-29T00:40:24;99748.31;;;11.22;52.77
62800;BME280;48842;51.046;13.796;2022-12-29T00:43:08;99753.50;;;11.29;52.46
62800;BME280;48842;51.046;13.796;2022-12-29T00:45:52;99749.91;;;11.40;52.30
62800;BME280;48842;51.046;13.796;2022-12-29T00:48:17;99750.75;;;11.46;52.56
62800;BME280;48842;51.046;13.796;2022-12-29T00:51:05;99751.53;;;11.53;52.55
62800;BME280;48842;51.046;13.796;2022-12-29T00:53:31;99750.59;;;11.59;51.81
62800;BME280;48842;51.046;13.796;2022-12-29T00:55:56;99747.06;;;11.64;51.82
62800;BME280;48842;51.046;13.796;2022-12-29T00:58:22;99731.28;;;11.67;51.82
62800;BME280;48842;51.046;13.796;2022-12-29T01:00:47;99739.06;;;11.74;52.14
62800;BME280;48842;51.046;13.796;2022-12-29T01:03:12;99729.41;;;11.79;51.55
62800;BME280;48842;51.046;13.796;2022-12-29T01:05:37;99719.75;;;11.82;52.04
62800;BME280;48842;51.046;13.796;2022-12-29T01:08:03;99731.97;;;11.85;52.43
62800;BME280;48842;51.046;13.796;2022-12-29T01:10:28;99728.47;;;11.86;51.85
62800;BME280;48842;51.046;13.796;2022-12-29T01:12:54;99730.19;;;11.88;52.15
62800;BME280;48842;51.046;13.796;2022-12-29T01:15:19;99724.03;;;11.90;52.63
62800;BME280;48842;51.046;13.796;2022-12-29T01:17:44;99732.78;;;11.90;52.49
62800;BME280;48842;51.046;13.796;2022-12-29T01:20:10;99733.66;;;11.91;53.38
62800;BME280;48842;51.046;13.796;2022-12-29T01:22:36;99731.03;;;11.91;52.91
62800;BME280;48842;51.046;13.796;2022-12-29T01:25:02;99735.41;;;11.90;53.01
62800;BME280;48842;51.046;13.796;2022-12-29T01:27:28;99738.94;;;11.89;53.05
62800;BME280;48842;51.046;13.796;2022-12-29T01:29:53;99740.69;;;11.87;53.55
62800;BME280;48842;51.046;13.796;2022-12-29T01:32:18;99731.97;;;11.85;53.69
62800;BME280;48842;51.046;13.796;2022-12-29T01:34:44;99729.38;;;11.82;54.21
62800;BME280;48842;51.046;13.796;2022-12-29T01:37:09;99733.78;;;11.78;53.79
62800;BME280;48842;51.046;13.796;2022-12-29T01:39:34;99735.56;;;11.75;53.61
62800;BME280;48842;51.046;13.796;2022-12-29T01:41:59;99732.13;;;11.73;53.82
62800;BME280;48842;51.046;13.796;2022-12-29T01:44:54;99731.25;;;11.69;54.35
62800;BME280;48842;51.046;13.796;2022-12-29T01:47:27;99726.94;;;11.65;53.73
62800;BME280;48842;51.046;13.796;2022-12-29T01:49:56;99726.94;;;11.63;53.92
62800;BME280;48842;51.046;13.796;2022-12-29T01:52:24;99719.09;;;11.62;54.28
62800;BME280;48842;51.046;13.796;2022-12-29T01:54:53;99725.22;;;11.59;53.77
62800;BME280;48842;51.046;13.796;2022-12-29T01:57:29;99717.41;;;11.55;54.01
62800;BME280;48842;51.046;13.796;2022-12-29T02:00:01;99722.72;;;11.50;53.76
62800;BME280;48842;51.046;13.796;2022-12-29T02:02:28;99717.50;;;11.45;53.99
62800;BME280;48842;51.046;13.796;2022-12-29T02:04:55;99721.91;;;11.45;54.39
62800;BME280;48842;51.046;13.796;2022-12-29T02:07:24;99716.66;;;11.43;54.32
62800;BME280;48842;51.046;13.796;2022-12-29T02:09:52;99705.31;;;11.41;54.56
62800;BME280;48842;51.046;13.796;2022-12-29T02:12:21;99696.59;;;11.41;54.71
62800;BME280;48842;51.046;13.796;2022-12-29T02:14:49;99691.38;;;11.39;54.63
62800;BME280;48842;51.046;13.796;2022-12-29T02:17:39;99685.25;;;11.37;54.93
62800;BME280;48842;51.046;13.796;2022-12-29T02:20:37;99686.13;;;11.34;55.77
62800;BME280;48842;51.046;13.796;2022-12-29T02:23:30;99699.25;;;11.33;55.62
62800;BME280;48842;51.046;13.796;2022-12-29T02:26:26;99694.03;;;11.33;55.79
62800;BME280;48842;51.046;13.796;2022-12-29T02:31:54;99697.56;;;11.32;55.83
62800;BME280;48842;51.046;13.796;2022-12-29T02:34:27;99687.94;;;11.31;56.05
62800;BME280;48842;51.046;13.796;2022-12-29T02:37:08;99672.22;;;11.29;56.13
62800;BME280;48842;51.046;13.796;2022-12-29T02:39:57;99675.69;;;11.30;55.97
62800;BME280;48842;51.046;13.796;2022-12-29T02:42:40;99681.84;;;11.30;55.87
62800;BME280;48842;51.046;13.796;2022-12-29T02:47:51;99675.66;;;11.33;55.74
62800;BME280;48842;51.046;13.796;2022-12-29T02:50:26;99675.66;;;11.34;56.38
62800;BME280;48842;51.046;13.796;2022-12-29T02:52:58;99669.53;;;11.35;56.00
62800;BME280;48842;51.046;13.796;2022-12-29T02:55:24;99661.66;;;11.37;56.41
62800;BME280;48842;51.046;13.796;2022-12-29T02:58:09;99661.66;;;11.37;56.36
62800;BME280;48842;51.046;13.796;2022-12-29T03:01:07;99675.63;;;11.41;56.36
62800;BME280;48842;51.046;13.796;2022-12-29T03:03:48;99667.72;;;11.44;56.43
62800;BME280;48842;51.046;13.796;2022-12-29T03:09:52;99675.56;;;11.45;56.54
62800;BME280;48842;51.046;13.796;2022-12-29T03:12:29;99665.06;;;11.47;56.03
62800;BME280;48842;51.046;13.796;2022-12-29T03:15:21;99659.81;;;11.47;56.59
62800;BME280;48842;51.046;13.796;2022-12-29T03:18:12;99679.91;;;11.48;56.63
62800;BME280;48842;51.046;13.796;2022-12-29T03:20:52;99678.13;;;11.50;56.20
62800;BME280;48842;51.046;13.796;2022-12-29T03:23:20;99656.28;;;11.51;56.24
62800;BME280;48842;51.046;13.796;2022-12-29T03:25:48;99661.50;;;11.51;56.57
62800;BME280;48842;51.046;13.796;2022-12-29T03:28:21;99658.88;;;11.51;56.55
62800;BME280;48842;51.046;13.796;2022-12-29T03:30:47;99657.09;;;11.53;56.22
62800;BME280;48842;51.046;13.796;2022-12-29T03:33:15;99658.84;;;11.54;55.93
62800;BME280;48842;51.046;13.796;2022-12-29T03:35:43;99661.47;;;11.56;55.52
62800;BME280;48842;51.046;13.796;2022-12-29T03:38:19;99652.75;;;11.53;55.67
62800;BME280;48842;51.046;13.796;2022-12-29T03:40:50;99650.94;;;11.57;55.48
62800;BME280;48842;51.046;13.796;2022-12-29T03:43:17;99642.22;;;11.58;55.45
62800;BME280;48842;51.046;13.796;2022-12-29T03:45:43;99639.59;;;11.58;55.59
62800;BME280;48842;51.046;13.796;2022-12-29T03:48:08;99637.78;;;11.60;55.61
62800;BME280;48842;51.046;13.796;2022-12-29T03:50:33;99638.66;;;11.59;55.15
62800;BME280;48842;51.046;13.796;2022-12-29T03:52:59;99637.78;;;11.60;55.26
62800;BME280;48842;51.046;13.796;2022-12-29T03:55:24;99624.66;;;11.62;55.22
62800;BME280;48842;51.046;13.796;2022-12-29T03:57:49;99632.53;;;11.62;55.25
62800;BME280;48842;51.046;13.796;2022-12-29T04:00:14;99637.75;;;11.63;55.24
62800;BME280;48842;51.046;13.796;2022-12-29T04:02:41;99626.38;;;11.64;55.08
62800;BME280;48842;51.046;13.796;2022-12-29T04:05:06;99621.16;;;11.63;55.12
62800;BME280;48842;51.046;13.796;2022-12-29T04:07:31;99619.38;;;11.63;54.89
62800;BME280;48842;51.046;13.796;2022-12-29T04:09:58;99622.88;;;11.65;55.33
62800;BME280;48842;51.046;13.796;2022-12-29T04:12:23;99613.28;;;11.64;55.04
62800;BME280;48842;51.046;13.796;2022-12-29T04:14:48;99617.63;;;11.65;54.85
62800;BME280;48842;51.046;13.796;2022-12-29T04:17:14;99611.47;;;11.66;55.00
62800;BME280;48842;51.046;13.796;2022-12-29T04:19:39;99622.88;;;11.67;54.52
62800;BME280;48842;51.046;13.796;2022-12-29T04:22:04;99614.09;;;11.66;54.46
62800;BME280;48842;51.046;13.796;2022-12-29T04:24:29;99616.72;;;11.66;55.13
62800;BME280;48842;51.046;13.796;2022-12-29T04:26:55;99614.09;;;11.68;55.12
62800;BME280;48842;51.046;13.796;2022-12-29T04:29:20;99615.84;;;11.67;54.69
62800;BME280;48842;51.046;13.796;2022-12-29T04:31:45;99626.31;;;11.69;54.34
62800;BME280;48842;51.046;13.796;2022-12-29T04:34:10;99616.69;;;11.69;54.91
62800;BME280;48842;51.046;13.796;2022-12-29T04:36:36;99622.81;;;11.70;54.52
62800;BME280;48842;51.046;13.796;2022-12-29T04:39:01;99621.91;;;11.73;54.64
62800;BME280;48842;51.046;13.796;2022-12-29T04:41:26;99619.31;;;11.73;54.75
62800;BME280;48842;51.046;13.796;2022-12-29T04:43:52;99620.13;;;11.75;54.39
62800;BME280;48842;51.046;13.796;2022-12-29T04:46:17;99623.63;;;11.74;54.79
62800;BME280;48842;51.046;13.796;2022-12-29T04:48:42;99628.88;;;11.75;54.54
62800;BME280;48842;51.046;13.796;2022-12-29T04:51:07;99623.59;;;11.77;54.71
62800;BME280;48842;51.046;13.796;2022-12-29T04:53:33;99617.47;;;11.78;54.59
62800;BME280;48842;51.046;13.796;2022-12-29T04:55:58;99626.22;;;11.80;54.68
62800;BME280;48842;51.046;13.796;2022-12-29T04:58:23;99623.59;;;11.80;54.57
62800;BME280;48842;51.046;13.796;2022-12-29T05:00:50;99620.03;;;11.81;55.09
62800;BME280;48842;51.046;13.796;2022-12-29T05:03:16;99631.47;;;11.80;54.60
62800;BME280;48842;51.046;13.796;2022-12-29T05:05:41;99624.41;;;11.82;54.83
62800;BME280;48842;51.046;13.796;2022-12-29T05:08:06;99630.50;;;11.84;55.00
62800;BME280;48842;51.046;13.796;2022-12-29T05:10:31;99627.00;;;11.85;55.51
62800;BME280;48842;51.046;13.796;2022-12-29T05:12:57;99639.19;;;11.89;55.55
62800;BME280;48842;51.046;13.796;2022-12-29T05:15:22;99639.16;;;11.92;55.87
62800;BME280;48842;51.046;13.796;2022-12-29T05:17:48;99635.69;;;11.93;55.86
62800;BME280;48842;51.046;13.796;2022-12-29T05:20:13;99641.75;;;11.97;56.50
62800;BME280;48842;51.046;13.796;2022-12-29T05:22:38;99649.56;;;12.01;56.10
62800;BME280;48842;51.046;13.796;2022-12-29T05:25:04;99631.13;;;12.04;55.84
62800;BME280;48842;51.046;13.796;2022-12-29T05:27:29;99632.00;;;12.07;56.40
62800;BME280;48842;51.046;13.796;2022-12-29T05:29:54;99633.72;;;12.09;56.05
62800;BME280;48842;51.046;13.796;2022-12-29T05:32:20;99634.56;;;12.11;56.37
62800;BME280;48842;51.046;13.796;2022-12-29T05:34:45;99640.66;;;12.12;56.78
62800;BME280;48842;51.046;13.796;2022-12-29T05:37:10;99632.78;;;12.13;56.28
62800;BME280;48842;51.046;13.796;2022-12-29T05:39:36;99635.38;;;12.15;56.11
62800;BME280;48842;51.046;13.796;2022-12-29T05:42:01;99634.50;;;12.16;56.28
62800;BME280;48842;51.046;13.796;2022-12-29T05:44:26;99639.72;;;12.17;56.68
62800;BME280;48842;51.046;13.796;2022-12-29T05:46:51;99638.84;;;12.17;56.31
62800;BME280;48842;51.046;13.796;2022-12-29T05:49:17;99643.22;;;12.18;56.91
62800;BME280;48842;51.046;13.796;2022-12-29T05:51:42;99649.34;;;12.18;56.52
62800;BME280;48842;51.046;13.796;2022-12-29T05:54:08;99636.19;;;12.20;57.00
62800;BME280;48842;51.046;13.796;2022-12-29T05:56:33;99632.69;;;12.21;56.52
62800;BME280;48842;51.046;13.796;2022-12-29T05:58:58;99625.66;;;12.21;56.93
62800;BME280;48842;51.046;13.796;2022-12-29T06:01:23;99634.41;;;12.22;56.40
62800;BME280;48842;51.046;13.796;2022-12-29T06:03:49;99633.50;;;12.23;56.76
62800;BME280;48842;51.046;13.796;2022-12-29T06:06:14;99644.91;;;12.22;56.20
62800;BME280;48842;51.046;13.796;2022-12-29T06:08:39;99642.28;;;12.22;56.58
62800;BME280;48842;51.046;13.796;2022-12-29T06:11:04;99646.66;;;12.23;56.58
62800;BME280;48842;51.046;13.796;2022-12-29T06:13:29;99646.66;;;12.23;56.58
62800;BME280;48842;51.046;13.796;2022-12-29T06:15:55;99646.66;;;12.23;56.42
62800;BME280;48842;51.046;13.796;2022-12-29T06:18:20;99644.88;;;12.23;56.60
62800;BME280;48842;51.046;13.796;2022-12-29T06:20:45;99643.97;;;12.26;56.52
62800;BME280;48842;51.046;13.796;2022-12-29T06:23:11;99649.16;;;12.29;56.52
62800;BME280;48842;51.046;13.796;2022-12-29T06:25:38;99644.78;;;12.31;56.98
62800;BME280;48842;51.046;13.796;2022-12-29T06:28:03;99640.38;;;12.33;57.02
62800;BME280;48842;51.046;13.796;2022-12-29T06:30:28;99646.47;;;12.35;56.92
62800;BME280;48842;51.046;13.796;2022-12-29T06:32:54;99640.28;;;12.38;56.81
62800;BME280;48842;51.046;13.796;2022-12-29T06:35:20;99631.53;;;12.39;56.73
62800;BME280;48842;51.046;13.796;2022-12-29T06:37:46;99632.38;;;12.41;56.46
62800;BME280;48842;51.046;13.796;2022-12-29T06:40:11;99628.88;;;12.40;56.52
62800;BME280;48842;51.046;13.796;2022-12-29T06:42:37;99628.81;;;12.44;56.70
62800;BME280;48842;51.046;13.796;2022-12-29T06:45:02;99629.75;;;12.43;56.88
62800;BME280;48842;51.046;13.796;2022-12-29T06:47:27;99623.56;;;12.45;56.33
62800;BME280;48842;51.046;13.796;2022-12-29T06:49:53;99625.31;;;12.45;56.37
62800;BME280;48842;51.046;13.796;2022-12-29T06:52:18;99628.81;;;12.44;56.14
62800;BME280;48842;51.046;13.796;2022-12-29T06:54:43;99631.47;;;12.44;56.43
62800;BME280;48842;51.046;13.796;2022-12-29T06:57:09;99619.25;;;12.43;56.12
62800;BME280;48842;51.046;13.796;2022-12-29T06:59:34;99635.00;;;12.41;56.06
62800;BME280;48842;51.046;13.796;2022-12-29T07:01:59;99634.09;;;12.42;56.51
62800;BME280;48842;51.046;13.796;2022-12-29T07:04:26;99636.75;;;12.40;56.02
62800;BME280;48842;51.046;13.796;2022-12-29T07:06:52;99638.56;;;12.38;55.88
62800;BME280;48842;51.046;13.796;2022-12-29T07:09:17;99633.34;;;12.35;56.00
62800;BME280;48842;51.046;13.796;2022-12-29T07:11:42;99627.25;;;12.33;55.78
62800;BME280;48842;51.046;13.796;2022-12-29T07:14:07;99631.66;;;12.31;56.37
62800;BME280;48842;51.046;13.796;2022-12-29T07:16:32;99629.06;;;12.28;55.98
62800;BME280;48842;51.046;13.796;2022-12-29T07:18:59;99631.69;;;12.28;56.24
62800;BME280;48842;51.046;13.796;2022-12-29T07:21:24;99635.22;;;12.27;55.89
62800;BME280;48842;51.046;13.796;2022-12-29T07:23:51;99639.63;;;12.25;55.91
62800;BME280;48842;51.046;13.796;2022-12-29T07:26:16;99650.13;;;12.25;56.07
62800;BME280;48842;51.046;13.796;2022-12-29T07:28:44;99639.66;;;12.22;56.24
62800;BME280;48842;51.046;13.796;2022-12-29T07:31:15;99645.81;;;12.21;56.27
62800;BME280;48842;51.046;13.796;2022-12-29T07:33:41;99653.69;;;12.21;55.98
62800;BME280;48842;51.046;13.796;2022-12-29T07:36:06;99660.72;;;12.17;55.97
62800;BME280;48842;51.046;13.796;2022-12-29T07:38:32;99664.25;;;12.16;56.18
62800;BME280;48842;51.046;13.796;2022-12-29T07:40:58;99659.88;;;12.15;55.91
62800;BME280;48842;51.046;13.796;2022-12-29T07:43:24;99640.63;;;12.15;56.05
62800;BME280;48842;51.046;13.796;2022-12-29T07:45:49;99642.38;;;12.16;55.72
62800;BME280;48842;51.046;13.796;2022-12-29T07:48:14;99629.25;;;12.16;55.75
62800;BME280;48842;51.046;13.796;2022-12-29T07:50:39;99633.59;;;12.17;56.33
62800;BME280;48842;51.046;13.796;2022-12-29T07:53:04;99629.25;;;12.16;56.39
62800;BME280;48842;51.046;13.796;2022-12-29T07:55:30;99642.38;;;12.16;56.03
62800;BME280;48842;51.046;13.796;2022-12-29T07:57:56;99644.13;;;12.17;55.85
62800;BME280;48842;51.046;13.796;2022-12-29T08:00:22;99649.38;;;12.17;56.16
62800;BME280;48842;51.046;13.796;2022-12-29T08:02:47;99662.50;;;12.15;56.12
62800;BME280;48842;51.046;13.796;2022-12-29T08:05:13;99647.63;;;12.16;55.89
62800;BME280;48842;51.046;13.796;2022-12-29T08:07:38;99640.63;;;12.16;55.98
62800;BME280;48842;51.046;13.796;2022-12-29T08:10:04;99643.22;;;12.18;55.29
62800;BME280;48842;51.046;13.796;2022-12-29T08:12:29;99651.97;;;12.18;55.43
62800;BME280;48842;51.046;13.796;2022-12-29T08:14:55;99669.47;;;12.19;55.74
62800;BME280;48842;51.046;13.796;2022-12-29T08:17:20;99661.56;;;12.21;55.50
62800;BME280;48842;51.046;13.796;2022-12-29T08:19:45;99672.06;;;12.21;55.66
62800;BME280;48842;51.046;13.796;2022-12-29T08:22:11;99675.53;;;12.23;55.20
62800;BME280;48842;51.046;13.796;2022-12-29T08:24:36;99678.13;;;12.25;54.99
62800;BME280;48842;51.046;13.796;2022-12-29T08:27:01;99685.97;;;12.26;55.20
62800;BME280;48842;51.046;13.796;2022-12-29T08:29:27;99683.31;;;12.29;55.16
62800;BME280;48842;51.046;13.796;2022-12-29T08:31:52;99671.94;;;12.30;54.94
62800;BME280;48842;51.046;13.796;2022-12-29T08:34:17;99679.78;;;12.32;54.98
62800;BME280;48842;51.046;13.796;2022-12-29T08:36:42;99676.28;;;12.33;54.19
62800;BME280;48842;51.046;13.796;2022-12-29T08:39:08;99674.47;;;12.35;54.46
62800;BME280;48842;51.046;13.796;2022-12-29T08:41:33;99672.72;;;12.37;54.19
62800;BME280;48842;51.046;13.796;2022-12-29T08:43:58;99674.38;;;12.41;54.41
62800;BME280;48842;51.046;13.796;2022-12-29T08:46:23;99675.25;;;12.43;54.36
62800;BME280;48842;51.046;13.796;2022-12-29T08:48:49;99665.59;;;12.44;53.75
62800;BME280;48842;51.046;13.796;2022-12-29T08:51:14;99663.88;;;12.43;53.58
62800;BME280;48842;51.046;13.796;2022-12-29T08:53:39;99676.09;;;12.44;53.84
62800;BME280;48842;51.046;13.796;2022-12-29T08:56:05;99684.00;;;12.44;53.54
62800;BME280;48842;51.046;13.796;2022-12-29T08:58:31;99676.13;;;12.42;53.80
62800;BME280;48842;51.046;13.796;2022-12-29T09:00:57;99662.16;;;12.40;53.86
62800;BME280;48842;51.046;13.796;2022-12-29T09:03:23;99663.06;;;12.37;53.88
62800;BME280;48842;51.046;13.796;2022-12-29T09:05:52;99658.69;;;12.36;53.21
62800;BME280;48842;51.046;13.796;2022-12-29T09:08:18;99660.44;;;12.39;54.10
62800;BME280;48842;51.046;13.796;2022-12-29T09:10:44;99656.91;;;12.40;53.55
62800;BME280;48842;51.046;13.796;2022-12-29T09:13:10;99652.53;;;12.40;54.09
62800;BME280;48842;51.046;13.796;2022-12-29T09:15:36;99682.28;;;12.39;54.08
62800;BME280;48842;51.046;13.796;2022-12-29T09:18:01;99659.47;;;12.45;53.83
62800;BME280;48842;51.046;13.796;2022-12-29T09:20:26;99659.41;;;12.49;53.56
62800;BME280;48842;51.046;13.796;2022-12-29T09:22:51;99649.56;;;12.62;54.16
62800;BME280;48842;51.046;13.796;2022-12-29T09:25:17;99652.06;;;12.70;53.48
62800;BME280;48842;51.046;13.796;2022-12-29T09:27:42;99658.13;;;12.75;53.58
62800;BME280;48842;51.046;13.796;2022-12-29T09:30:10;99653.56;;;12.85;53.24
62800;BME280;48842;51.046;13.796;2022-12-29T09:32:36;99653.44;;;12.94;53.23
62800;BME280;48842;51.046;13.796;2022-12-29T09:35:01;99644.63;;;12.98;53.51
62800;BME280;48842;51.046;13.796;2022-12-29T09:37:26;99661.13;;;13.05;53.05
62800;BME280;48842;51.046;13.796;2022-12-29T09:39:52;99647.94;;;13.06;52.72
62800;BME280;48842;51.046;13.796;2022-12-29T09:47:20;99655.59;;;13.20;52.86
62800;BME280;48842;51.046;13.796;2022-12-29T09:49:49;99652.91;;;13.25;52.32
62800;BME280;48842;51.046;13.796;2022-12-29T09:52:30;99657.22;;;13.29;51.92
62800;BME280;48842;51.046;13.796;2022-12-29T09:55:00;99665.00;;;13.35;52.34
62800;BME280;48842;51.046;13.796;2022-12-29T09:57:33;99645.66;;;13.39;51.62
62800;BME280;48842;51.046;13.796;2022-12-29T10:00:14;99649.03;;;13.44;51.72
62800;BME280;48842;51.046;13.796;2022-12-29T10:02:44;99655.97;;;13.49;51.59
62800;BME280;48842;51.046;13.796;2022-12-29T10:05:19;99645.56;;;13.44;50.35
62800;BME280;48842;51.046;13.796;2022-12-29T10:08:10;99642.72;;;13.55;50.72
62800;BME280;48842;51.046;13.796;2022-12-29T10:10:46;99647.81;;;13.64;50.96
62800;BME280;48842;51.046;13.796;2022-12-29T10:16:57;99639.72;;;13.73;50.92
62800;BME280;48842;51.046;13.796;2022-12-29T10:24:18;99649.19;;;13.82;50.49
62800;BME280;48842;51.046;13.796;2022-12-29T10:26:45;99634.22;;;13.86;49.88
62800;BME280;48842;51.046;13.796;2022-12-29T10:29:52;99635.00;;;13.89;49.41
62800;BME280;48842;51.046;13.796;2022-12-29T10:32:38;99651.59;;;13.94;49.03
62800;BME280;48842;51.046;13.796;2022-12-29T10:35:12;99644.41;;;14.01;49.47
62800;BME280;48842;51.046;13.796;2022-12-29T10:37:56;99624.13;;;14.06;49.11
62800;BME280;48842;51.046;13.796;2022-12-29T10:40:33;99628.38;;;14.10;48.79
62800;BME280;48842;51.046;13.796;2022-12-29T10:43:11;99631.81;;;14.16;49.12
62800;BME280;48842;51.046;13.796;2022-12-29T10:45:38;99637.75;;;14.25;49.30
62800;BME280;48842;51.046;13.796;2022-12-29T10:48:19;99631.41;;;14.34;48.53
62800;BME280;48842;51.046;13.796;2022-12-29T10:50:45;99609.19;;;14.44;48.91
62800;BME280;48842;51.046;13.796;2022-12-29T10:53:18;99608.16;;;14.52;47.99
62800;BME280;48842;51.046;13.796;2022-12-29T10:55:45;99614.03;;;14.63;48.45
62800;BME280;48842;51.046;13.796;2022-12-29T10:58:13;99599.84;;;14.69;48.08
62800;BME280;48842;51.046;13.796;2022-12-29T11:00:38;99608.38;;;14.78;48.42
62800;BME280;48842;51.046;13.796;2022-12-29T11:03:17;99592.47;;;14.81;47.72
62800;BME280;48842;51.046;13.796;2022-12-29T11:06:10;99598.44;;;14.90;48.11
62800;BME280;48842;51.046;13.796;2022-12-29T11:08:49;99596.50;;;14.96;47.67
62800;BME280;48842;51.046;13.796;2022-12-29T11:11:23;99600.75;;;15.02;47.78
62800;BME280;48842;51.046;13.796;2022-12-29T11:13:54;99595.28;;;15.08;47.54
62800;BME280;48842;51.046;13.796;2022-12-29T11:16:32;99595.88;;;15.19;47.81
62800;BME280;48842;51.046;13.796;2022-12-29T11:18:59;99592.22;;;15.25;47.55
62800;BME280;48842;51.046;13.796;2022-12-29T11:21:34;99605.41;;;15.25;46.37
62800;BME280;48842;51.046;13.796;2022-12-29T11:24:01;99590.38;;;15.29;46.82
62800;BME280;48842;51.046;13.796;2022-12-29T11:26:29;99592.91;;;15.32;46.84
62800;BME280;48842;51.046;13.796;2022-12-29T11:31:46;99586.72;;;15.33;46.87
62800;BME280;48842;51.046;13.796;2022-12-29T11:34:23;99582.31;;;15.33;47.15
62800;BME280;48842;51.046;13.796;2022-12-29T11:36:52;99602.53;;;15.33;47.32
62800;BME280;48842;51.046;13.796;2022-12-29T11:40:15;99592.88;;;15.33;46.94
62800;BME280;48842;51.046;13.796;2022-12-29T11:42:17;99592.84;;;15.35;47.08
62800;BME280;48842;51.046;13.796;2022-12-29T11:44:46;99584.88;;;15.36;47.25
62800;BME280;48842;51.046;13.796;2022-12-29T11:47:21;99588.22;;;15.42;47.09
62800;BME280;48842;51.046;13.796;2022-12-29T11:49:52;99595.19;;;15.44;47.31
62800;BME280;48842;51.046;13.796;2022-12-29T11:52:24;99589.91;;;15.44;46.48
62800;BME280;48842;51.046;13.796;2022-12-29T11:54:51;99577.47;;;15.49;47.02
62800;BME280;48842;51.046;13.796;2022-12-29T11:57:18;99579.03;;;15.57;46.92
62800;BME280;48842;51.046;13.796;2022-12-29T11:59:52;99583.34;;;15.59;46.21
62800;BME280;48842;51.046;13.796;2022-12-29T12:04:45;99582.38;;;15.62;46.69
62800;BME280;48842;51.046;13.796;2022-12-29T12:07:17;99582.38;;;15.62;46.37
62800;BME280;48842;51.046;13.796;2022-12-29T12:09:50;99582.38;;;15.62;46.33
62800;BME280;48842;51.046;13.796;2022-12-29T12:12:39;99575.59;;;15.53;45.74
62800;BME280;48842;51.046;13.796;2022-12-29T12:15:15;99582.63;;;15.54;46.02
62800;BME280;48842;51.046;13.796;2022-12-29T12:17:57;99590.50;;;15.56;46.11
62800;BME280;48842;51.046;13.796;2022-12-29T12:20:45;99574.66;;;15.56;46.39
62800;BME280;48842;51.046;13.796;2022-12-29T12:31:10;99580.13;;;15.49;45.79
62800;BME280;48842;51.046;13.796;2022-12-29T12:33:45;99574.75;;;15.52;45.72
62800;BME280;48842;51.046;13.796;2022-12-29T12:36:27;99574.69;;;15.54;45.61
62800;BME280;48842;51.046;13.796;2022-12-29T12:41:52;99557.91;;;15.57;45.42
62800;BME280;48842;51.046;13.796;2022-12-29T12:44:29;99555.38;;;15.52;45.11
62800;BME280;48842;51.046;13.796;2022-12-29T12:47:26;99545.53;;;15.59;45.12
62800;BME280;48842;51.046;13.796;2022-12-29T12:50:18;99554.25;;;15.61;44.86
62800;BME280;48842;51.046;13.796;2022-12-29T12:56:13;99551.44;;;15.67;45.27
62800;BME280;48842;51.046;13.796;2022-12-29T12:58:50;99539.84;;;15.71;45.11
62800;BME280;48842;51.046;13.796;2022-12-29T13:01:24;99540.69;;;15.73;45.41
62800;BME280;48842;51.046;13.796;2022-12-29T13:04:00;99545.81;;;15.78;45.20
62800;BME280;48842;51.046;13.796;2022-12-29T13:06:45;99540.53;;;15.79;45.59
62800;BME280;48842;51.046;13.796;2022-12-29T13:09:38;99534.25;;;15.83;45.12
62800;BME280;48842;51.046;13.796;2022-12-29T13:12:30;99536.09;;;15.81;44.51
62800;BME280;48842;51.046;13.796;2022-12-29T13:20:47;99555.78;;;15.99;44.55
62800;BME280;48842;51.046;13.796;2022-12-29T13:23:25;99538.91;;;16.03;44.87
62800;BME280;48842;51.046;13.796;2022-12-29T13:28:40;99546.94;;;16.00;43.82
62800;BME280;48842;51.046;13.796;2022-12-29T13:31:19;99545.97;;;16.03;44.15
62800;BME280;48842;51.046;13.796;2022-12-29T13:33:59;99549.53;;;16.02;44.30
62800;BME280;48842;51.046;13.796;2022-12-29T13:36:42;99549.66;;;15.97;44.03
62800;BME280;48842;51.046;13.796;2022-12-29T13:39:15;99563.25;;;15.85;43.68
62800;BME280;48842;51.046;13.796;2022-12-29T13:41:46;99557.81;;;15.90;44.65
62800;BME280;48842;51.046;13.796;2022-12-29T13:44:18;99554.28;;;15.91;44.57
62800;BME280;48842;51.046;13.796;2022-12-29T13:46:46;99549.91;;;15.90;44.23
62800;BME280;48842;51.046;13.796;2022-12-29T13:49:18;99563.25;;;15.85;43.70
62800;BME280;48842;51.046;13.796;2022-12-29T13:51:57;99552.75;;;15.83;43.99
62800;BME280;48842;51.046;13.796;2022-12-29T13:54:34;99553.75;;;15.79;43.93
62800;BME280;48842;51.046;13.796;2022-12-29T13:59:51;99559.97;;;15.75;44.55